createdAt,value
2023-04-13T00:02:24.298Z,91.47
2023-04-13T00:04:51.548Z,90.54
2023-04-13T00:07:19.108Z,90.40
2023-04-13T00:09:47.539Z,90.63
2023-04-13T00:12:16.115Z,90.59
2023-04-13T00:14:44.123Z,90.18
2023-04-13T00:17:11.329Z,90.22
2023-04-13T00:19:38.327Z,89.92
2023-04-13T00:22:05.426Z,90.53
2023-04-13T00:24:33.768Z,90.42
2023-04-13T00:27:01.255Z,90.63
2023-04-13T00:29:28.240Z,91.13
2023-04-13T00:31:55.103Z,91.95
2023-04-13T00:34:23.718Z,92.79
2023-04-13T00:36:52.574Z,92.75
2023-04-13T00:39:23.295Z,93.52
2023-04-13T00:41:53.297Z,93.56
2023-04-13T00:44:20.353Z,94.41
2023-04-13T00:46:51.040Z,94.73
2023-04-13T00:49:18.871Z,95.42
2023-04-13T00:51:46.623Z,95.70
2023-04-13T00:54:15.008Z,96.26
2023-04-13T00:56:42.874Z,96.97
2023-04-13T00:59:13.357Z,97.83
2023-04-13T01:01:56.340Z,100.00
2023-04-13T01:04:25.685Z,100.00
2023-04-13T01:07:19.904Z,100.00
2023-04-13T01:10:12.449Z,100.00
2023-04-13T01:12:51.767Z,100.00
2023-04-13T01:15:20.053Z,100.00
2023-04-13T01:17:57.007Z,100.00
2023-04-13T01:20:28.887Z,100.00
2023-04-13T01:23:02.101Z,100.00
2023-04-13T01:25:45.926Z,100.00
2023-04-13T01:28:16.038Z,100.00
2023-04-13T01:30:44.721Z,100.00
2023-04-13T01:33:14.058Z,100.00
2023-04-13T01:35:42.408Z,100.00
2023-04-13T01:38:14.410Z,100.00
2023-04-13T01:40:42.336Z,100.00
2023-04-13T01:43:10.695Z,100.00
2023-04-13T01:46:11.993Z,100.00
2023-04-13T01:48:56.961Z,100.00
2023-04-13T01:51:45.303Z,100.00
2023-04-13T01:54:20.634Z,100.00
2023-04-13T01:56:49.065Z,100.00
2023-04-13T01:59:16.924Z,100.00
2023-04-13T02:01:44.850Z,100.00
2023-04-13T02:04:12.575Z,100.00
2023-04-13T02:06:42.443Z,100.00
2023-04-13T02:09:10.163Z,100.00
2023-04-13T02:11:37.343Z,100.00
2023-04-13T02:14:05.812Z,100.00
2023-04-13T02:16:33.342Z,100.00
2023-04-13T02:19:00.726Z,100.00
2023-04-13T02:21:28.379Z,100.00
2023-04-13T02:23:55.519Z,100.00
2023-04-13T02:26:23.678Z,100.00
2023-04-13T02:28:51.624Z,100.00
2023-04-13T02:31:20.645Z,100.00
2023-04-13T02:33:47.743Z,100.00
2023-04-13T02:36:17.556Z,100.00
2023-04-13T02:38:53.180Z,100.00
2023-04-13T02:41:27.332Z,100.00
2023-04-13T02:43:54.146Z,100.00
2023-04-13T02:46:23.849Z,100.00
2023-04-13T02:48:57.577Z,100.00
2023-04-13T02:51:28.209Z,100.00
2023-04-13T02:53:57.824Z,100.00
2023-04-13T02:56:28.661Z,100.00
2023-04-13T02:58:58.314Z,100.00
2023-04-13T03:01:25.514Z,100.00
2023-04-13T03:03:54.637Z,100.00
2023-04-13T03:06:24.330Z,100.00
2023-04-13T03:08:55.645Z,100.00
2023-04-13T03:11:26.431Z,100.00
2023-04-13T03:14:22.000Z,100.00
2023-04-13T03:16:54.825Z,100.00
2023-04-13T03:19:26.587Z,100.00
2023-04-13T03:21:53.698Z,100.00
2023-04-13T03:24:27.433Z,100.00
2023-04-13T03:26:58.134Z,100.00
2023-04-13T03:29:32.307Z,100.00
2023-04-13T03:31:59.452Z,100.00
2023-04-13T03:34:30.966Z,100.00
2023-04-13T03:37:00.085Z,100.00
2023-04-13T03:39:27.253Z,100.00
2023-04-13T03:41:54.375Z,100.00
2023-04-13T03:44:21.190Z,100.00
2023-04-13T03:46:48.427Z,100.00
2023-04-13T03:49:23.034Z,100.00
2023-04-13T03:51:49.876Z,100.00
2023-04-13T03:54:16.887Z,100.00
2023-04-13T03:56:45.326Z,100.00
2023-04-13T03:59:12.164Z,100.00
2023-04-13T04:01:39.389Z,100.00
2023-04-13T04:04:06.807Z,100.00
2023-04-13T04:06:33.984Z,100.00
2023-04-13T04:09:12.504Z,100.00
2023-04-13T04:11:46.306Z,100.00
2023-04-13T04:14:15.840Z,100.00
2023-04-13T04:16:52.998Z,100.00
2023-04-13T04:19:20.256Z,100.00
2023-04-13T04:21:47.792Z,100.00
2023-04-13T04:24:23.011Z,100.00
2023-04-13T04:26:56.209Z,100.00
2023-04-13T04:29:34.338Z,100.00
2023-04-13T04:32:14.728Z,100.00
2023-04-13T04:34:41.786Z,100.00
2023-04-13T04:37:20.315Z,100.00
2023-04-13T04:40:00.303Z,100.00
2023-04-13T04:42:27.661Z,100.00
2023-04-13T04:44:56.584Z,100.00
2023-04-13T04:47:24.918Z,100.00
2023-04-13T04:50:07.573Z,100.00
2023-04-13T04:52:38.893Z,100.00
2023-04-13T04:55:07.523Z,100.00
2023-04-13T04:57:37.028Z,100.00
2023-04-13T05:00:16.105Z,100.00
2023-04-13T05:02:51.119Z,100.00
2023-04-13T05:05:18.997Z,100.00
2023-04-13T05:07:48.145Z,100.00
2023-04-13T05:10:15.076Z,100.00
2023-04-13T05:12:47.461Z,100.00
2023-04-13T05:15:14.546Z,100.00
2023-04-13T05:17:41.935Z,100.00
2023-04-13T05:20:09.619Z,100.00
2023-04-13T05:22:45.636Z,100.00
2023-04-13T05:25:13.371Z,100.00
2023-04-13T05:27:41.124Z,99.76
2023-04-13T05:30:09.793Z,98.64
2023-04-13T05:32:39.395Z,96.68
2023-04-13T05:35:07.912Z,96.75
2023-04-13T05:37:35.315Z,96.93
2023-04-13T05:40:02.804Z,97.16
2023-04-13T05:42:32.952Z,97.69
2023-04-13T05:45:01.217Z,98.04
2023-04-13T05:47:29.411Z,98.09
2023-04-13T05:50:01.274Z,98.38
2023-04-13T05:52:28.346Z,98.25
2023-04-13T05:54:55.143Z,96.54
2023-04-13T05:57:23.794Z,93.71
2023-04-13T05:59:53.589Z,89.48
2023-04-13T06:02:26.612Z,87.60
2023-04-13T06:04:55.304Z,87.55
2023-04-13T06:07:22.626Z,85.80
2023-04-13T06:09:49.918Z,82.89
2023-04-13T06:12:18.483Z,82.07
2023-04-13T06:14:46.158Z,81.34
2023-04-13T06:17:13.104Z,80.22
2023-04-13T06:19:40.266Z,78.11
2023-04-13T06:22:07.560Z,73.54
2023-04-13T06:24:37.964Z,74.05
2023-04-13T06:27:07.612Z,74.66
2023-04-13T06:29:35.220Z,75.70
2023-04-13T06:32:09.576Z,76.03
2023-04-13T06:34:37.074Z,71.26
2023-04-13T06:37:05.296Z,69.96
2023-04-13T06:39:41.724Z,69.65
2023-04-13T06:42:09.645Z,68.45
2023-04-13T06:44:50.081Z,67.32
2023-04-13T06:47:18.037Z,68.67
2023-04-13T06:49:46.440Z,72.35
2023-04-13T06:52:13.400Z,71.05
2023-04-13T06:54:40.549Z,70.55
2023-04-13T06:57:20.083Z,70.02
2023-04-13T06:59:47.314Z,68.08
2023-04-13T07:02:14.471Z,68.81
2023-04-13T07:04:41.795Z,66.82
2023-04-13T07:07:09.287Z,66.75
2023-04-13T07:09:36.252Z,66.64
2023-04-13T07:12:06.226Z,61.30
2023-04-13T07:14:35.159Z,63.26
2023-04-13T07:17:04.258Z,62.07
2023-04-13T07:19:31.843Z,63.85
2023-04-13T07:22:00.202Z,61.08
2023-04-13T07:24:30.023Z,64.52
2023-04-13T07:26:59.773Z,64.14
2023-04-13T07:29:27.553Z,62.76
2023-04-13T07:32:04.542Z,62.92
2023-04-13T07:34:33.675Z,59.81
2023-04-13T07:37:00.991Z,60.06
2023-04-13T07:39:28.362Z,58.86
2023-04-13T07:41:57.396Z,58.47
2023-04-13T07:44:35.735Z,59.04
2023-04-13T07:47:03.244Z,59.21
2023-04-13T07:49:32.300Z,57.30
2023-04-13T07:52:00.448Z,58.58
2023-04-13T07:54:30.801Z,60.63
2023-04-13T07:56:58.620Z,60.05
2023-04-13T07:59:29.560Z,59.06
2023-04-13T08:01:58.137Z,61.84
2023-04-13T08:04:26.179Z,60.85
2023-04-13T08:06:54.136Z,60.68
2023-04-13T08:09:21.573Z,61.04
2023-04-13T08:11:49.969Z,58.95
2023-04-13T08:14:17.444Z,60.96
2023-04-13T08:16:47.310Z,58.29
2023-04-13T08:19:14.237Z,56.44
2023-04-13T08:21:46.954Z,57.60
2023-04-13T08:24:14.221Z,56.06
2023-04-13T08:26:41.949Z,57.08
2023-04-13T08:29:10.656Z,56.63
2023-04-13T08:31:38.626Z,55.72
2023-04-13T08:34:07.243Z,53.29
2023-04-13T08:36:34.227Z,54.82
2023-04-13T08:39:10.085Z,55.65
2023-04-13T08:41:42.063Z,56.34
2023-04-13T08:44:13.572Z,54.45
2023-04-13T08:46:47.263Z,55.40
2023-04-13T08:49:18.333Z,54.20
2023-04-13T08:52:05.945Z,55.07
2023-04-13T08:54:35.321Z,55.14
2023-04-13T08:57:05.502Z,54.05
2023-04-13T08:59:33.870Z,54.82
2023-04-13T09:02:04.532Z,52.92
2023-04-13T09:04:39.421Z,52.02
2023-04-13T09:07:08.398Z,53.63
2023-04-13T09:09:43.044Z,52.30
2023-04-13T09:12:12.002Z,54.40
2023-04-13T09:14:40.659Z,55.42
2023-04-13T09:17:07.639Z,53.09
2023-04-13T09:19:38.952Z,52.20
2023-04-13T09:22:15.216Z,53.33
2023-04-13T09:24:42.789Z,54.67
2023-04-13T09:27:23.517Z,51.70
2023-04-13T09:29:52.606Z,51.74
2023-04-13T09:32:27.535Z,52.58
2023-04-13T09:35:05.641Z,49.87
2023-04-13T09:40:28.033Z,50.97
2023-04-13T09:43:00.130Z,53.89
2023-04-13T09:45:38.381Z,50.81
2023-04-13T09:48:15.956Z,52.16
2023-04-13T09:50:43.218Z,53.02
2023-04-13T09:53:13.976Z,48.57
2023-04-13T09:55:41.240Z,49.48
2023-04-13T09:58:17.635Z,49.35
2023-04-13T10:00:46.644Z,48.67
2023-04-13T10:03:15.303Z,52.36
2023-04-13T10:06:02.888Z,52.04
2023-04-13T10:08:38.656Z,52.39
2023-04-13T10:11:11.980Z,50.17
2023-04-13T10:13:48.335Z,48.70
2023-04-13T10:16:34.128Z,48.73
2023-04-13T10:19:10.269Z,50.13
2023-04-13T10:21:45.191Z,46.93
2023-04-13T10:24:13.274Z,44.02
2023-04-13T10:26:42.015Z,45.85
2023-04-13T10:29:10.243Z,45.83
2023-04-13T10:31:38.211Z,46.57
2023-04-13T10:34:06.524Z,47.57
2023-04-13T10:36:44.567Z,45.75
2023-04-13T10:39:11.840Z,42.23
2023-04-13T10:41:39.170Z,44.44
2023-04-13T10:44:08.061Z,45.39
2023-04-13T10:46:36.450Z,42.62
2023-04-13T10:49:05.010Z,42.65
2023-04-13T10:51:42.867Z,45.64
2023-04-13T10:54:10.963Z,46.42
2023-04-13T10:56:38.157Z,42.94
2023-04-13T10:59:05.082Z,44.37
2023-04-13T11:01:32.384Z,43.11
2023-04-13T11:04:06.065Z,45.65
2023-04-13T11:06:38.007Z,44.28
2023-04-13T11:09:07.318Z,42.62
2023-04-13T11:11:37.288Z,43.43
2023-04-13T11:14:04.672Z,42.94
2023-04-13T11:16:31.756Z,47.34
2023-04-13T11:19:03.625Z,43.06
2023-04-13T11:21:31.888Z,45.99
2023-04-13T11:24:02.774Z,45.64
2023-04-13T11:26:38.656Z,42.79
2023-04-13T11:29:05.880Z,43.54
2023-04-13T11:31:39.754Z,43.83
2023-04-13T11:34:09.835Z,43.75
2023-04-13T11:36:39.832Z,44.54
2023-04-13T11:39:11.112Z,46.52
2023-04-13T11:41:41.955Z,42.64
2023-04-13T11:44:12.248Z,43.34
2023-04-13T11:46:39.266Z,42.89
2023-04-13T11:49:07.028Z,43.85
2023-04-13T11:51:35.228Z,45.11
2023-04-13T11:54:03.098Z,43.43
2023-04-13T11:56:31.093Z,44.70
2023-04-13T11:58:58.992Z,42.65
2023-04-13T12:01:32.373Z,43.72
2023-04-13T12:04:15.024Z,40.61
2023-04-13T12:06:46.296Z,41.48
2023-04-13T12:09:17.932Z,43.18
2023-04-13T12:11:54.304Z,40.93
2023-04-13T12:14:51.977Z,40.33
2023-04-13T12:17:38.417Z,42.38
2023-04-13T12:20:07.882Z,39.71
2023-04-13T12:22:51.371Z,40.90
2023-04-13T12:25:24.445Z,40.85
2023-04-13T12:27:53.635Z,42.16
2023-04-13T12:30:22.499Z,41.11
2023-04-13T12:32:52.850Z,40.33
2023-04-13T12:35:20.817Z,41.04
2023-04-13T12:37:50.249Z,41.84
2023-04-13T12:40:18.740Z,38.61
2023-04-13T12:42:46.899Z,40.02
2023-04-13T12:45:15.237Z,38.31
2023-04-13T12:47:42.860Z,38.84
2023-04-13T12:50:11.458Z,38.73
2023-04-13T12:52:41.244Z,38.30
2023-04-13T12:55:08.950Z,39.02
2023-04-13T12:57:36.191Z,38.33
2023-04-13T13:00:08.830Z,38.01
2023-04-13T13:02:36.835Z,38.61
2023-04-13T13:05:05.101Z,38.10
2023-04-13T13:07:32.404Z,38.83
2023-04-13T13:10:01.113Z,38.16
2023-04-13T13:12:30.712Z,37.50
2023-04-13T13:14:58.685Z,38.65
2023-04-13T13:17:26.421Z,37.96
2023-04-13T13:19:54.790Z,38.15
2023-04-13T13:22:21.988Z,39.00
2023-04-13T13:24:49.681Z,37.72
2023-04-13T13:27:48.510Z,36.35
2023-04-13T13:30:05.090Z,35.78
2023-04-13T13:32:32.053Z,35.83
2023-04-13T13:34:59.332Z,35.49
2023-04-13T13:37:29.288Z,35.03
2023-04-13T13:39:56.216Z,34.72
2023-04-13T13:42:23.283Z,36.53
2023-04-13T13:44:50.534Z,37.84
2023-04-13T13:47:17.891Z,35.73
2023-04-13T13:49:49.589Z,38.16
2023-04-13T13:52:23.036Z,34.06
2023-04-13T13:54:54.662Z,34.87
2023-04-13T13:57:21.585Z,35.17
2023-04-13T13:59:49.464Z,33.50
2023-04-13T14:02:16.878Z,35.02
2023-04-13T14:04:44.149Z,37.40
2023-04-13T14:07:11.669Z,36.17
2023-04-13T14:09:41.248Z,35.56
2023-04-13T14:12:09.309Z,35.09
2023-04-13T14:14:36.312Z,35.72
2023-04-13T14:17:03.184Z,36.20
2023-04-13T14:19:30.155Z,35.68
2023-04-13T14:21:56.956Z,36.42
2023-04-13T14:24:26.231Z,37.08
2023-04-13T14:26:53.484Z,37.14
2023-04-13T14:29:20.994Z,35.65
2023-04-13T14:31:48.056Z,36.63
2023-04-13T14:34:16.536Z,37.80
2023-04-13T14:36:44.877Z,37.13
2023-04-13T14:39:12.202Z,35.78
2023-04-13T14:41:39.063Z,35.32
2023-04-13T14:44:06.058Z,35.64
2023-04-13T14:46:33.361Z,34.65
2023-04-13T14:49:01.136Z,37.00
2023-04-13T14:51:29.182Z,36.44
2023-04-13T14:53:56.733Z,36.03
2023-04-13T14:56:24.098Z,37.04
2023-04-13T14:58:51.116Z,37.44
2023-04-13T15:01:20.025Z,34.88
2023-04-13T15:03:47.389Z,35.19
2023-04-13T15:06:14.838Z,35.59
2023-04-13T15:08:41.860Z,35.75
2023-04-13T15:11:09.197Z,36.79
2023-04-13T15:13:37.232Z,37.23
2023-04-13T15:16:05.377Z,38.02
2023-04-13T15:18:32.491Z,38.10
2023-04-13T15:21:03.461Z,38.01
2023-04-13T15:23:30.684Z,38.07
2023-04-13T15:26:01.890Z,39.16
2023-04-13T15:28:29.123Z,39.30
2023-04-13T15:30:56.190Z,39.24
2023-04-13T15:33:23.279Z,37.71
2023-04-13T15:35:52.601Z,38.67
2023-04-13T15:38:19.717Z,37.88
2023-04-13T15:40:47.203Z,37.10
2023-04-13T15:43:14.076Z,36.62
2023-04-13T15:45:41.581Z,37.15
2023-04-13T15:48:08.444Z,37.77
2023-04-13T15:50:35.697Z,38.54
2023-04-13T15:53:02.629Z,39.00
2023-04-13T15:55:29.504Z,39.40
2023-04-13T15:57:57.425Z,40.71
2023-04-13T16:00:26.313Z,41.83
2023-04-13T16:02:53.469Z,41.46
2023-04-13T16:05:21.220Z,41.63
2023-04-13T16:07:49.106Z,41.86
2023-04-13T16:10:17.768Z,41.75
2023-04-13T16:13:18.707Z,41.89
2023-04-13T16:15:53.042Z,42.22
2023-04-13T16:18:21.820Z,42.65
2023-04-13T16:20:52.020Z,43.06
2023-04-13T16:23:19.379Z,43.77
2023-04-13T16:25:46.524Z,43.65
2023-04-13T16:28:13.563Z,43.92
2023-04-13T16:30:40.545Z,44.52
2023-04-13T16:33:07.737Z,44.98
2023-04-13T16:35:34.918Z,45.55
2023-04-13T16:38:02.264Z,46.07
2023-04-13T16:40:29.203Z,46.51
2023-04-13T16:42:56.132Z,47.11
2023-04-13T16:45:24.640Z,47.39
2023-04-13T16:47:55.227Z,47.86
2023-04-13T16:50:22.547Z,48.26
2023-04-13T16:52:49.394Z,49.27
2023-04-13T16:55:17.483Z,50.65
2023-04-13T16:58:34.854Z,51.63
2023-04-13T17:01:02.191Z,52.74
2023-04-13T17:03:29.428Z,53.87
2023-04-13T17:05:57.063Z,54.46
2023-04-13T17:08:23.861Z,55.33
2023-04-13T17:10:52.335Z,55.98
2023-04-13T17:13:19.330Z,56.51
2023-04-13T17:15:46.356Z,56.94
2023-04-13T17:18:16.370Z,57.42
2023-04-13T17:20:43.607Z,58.75
2023-04-13T17:23:10.682Z,60.28
2023-04-13T17:25:41.592Z,61.16
2023-04-13T17:28:08.523Z,61.63
2023-04-13T17:30:35.613Z,62.31
2023-04-13T17:33:02.645Z,61.65
2023-04-13T17:35:29.477Z,62.02
2023-04-13T17:37:56.410Z,62.65
2023-04-13T17:40:23.299Z,64.03
2023-04-13T17:42:50.276Z,66.45
2023-04-13T17:45:18.792Z,68.11
2023-04-13T17:47:47.178Z,69.80
2023-04-13T17:50:14.422Z,70.72
2023-04-13T17:52:41.773Z,71.61
2023-04-13T17:55:09.190Z,72.26
2023-04-13T17:57:36.309Z,73.73
2023-04-13T18:00:04.139Z,74.70
2023-04-13T18:02:31.958Z,75.15
2023-04-13T18:04:58.880Z,76.00
2023-04-13T18:07:26.967Z,76.19
2023-04-13T18:09:53.838Z,76.77
2023-04-13T18:12:20.997Z,77.40
2023-04-13T18:14:48.010Z,77.84
2023-04-13T18:17:14.943Z,78.02
2023-04-13T18:19:42.684Z,79.28
2023-04-13T18:22:09.521Z,79.37
2023-04-13T18:24:36.473Z,79.33
2023-04-13T18:27:03.506Z,79.63
2023-04-13T18:29:30.447Z,81.61
2023-04-13T18:31:57.541Z,82.97
2023-04-13T18:37:02.431Z,82.72
2023-04-13T18:38:40.476Z,83.08
2023-04-13T18:41:07.280Z,83.00
2023-04-13T18:43:34.176Z,83.17
2023-04-13T18:46:01.689Z,83.30
2023-04-13T18:48:32.802Z,83.58
2023-04-13T18:50:59.995Z,84.50
2023-04-13T18:53:27.082Z,84.85
2023-04-13T18:55:54.081Z,84.75
2023-04-13T18:58:21.514Z,85.46
2023-04-13T19:00:48.597Z,86.28
2023-04-13T19:03:15.851Z,87.43
2023-04-13T19:05:42.925Z,88.23
2023-04-13T19:08:13.475Z,88.46
2023-04-13T19:10:42.340Z,88.21
2023-04-13T19:13:09.312Z,88.23
2023-04-13T19:15:36.949Z,88.62
2023-04-13T19:18:04.578Z,89.85
2023-04-13T19:20:31.744Z,89.90
2023-04-13T19:22:58.750Z,90.16
2023-04-13T19:25:25.777Z,89.84
2023-04-13T19:27:52.726Z,90.11
2023-04-13T19:30:19.892Z,91.16
2023-04-13T19:32:49.314Z,91.64
2023-04-13T19:35:16.743Z,91.12
2023-04-13T19:37:43.883Z,90.60
2023-04-13T19:40:13.776Z,91.46
2023-04-13T19:42:43.003Z,91.80
2023-04-13T19:45:12.953Z,92.18
2023-04-13T19:47:41.188Z,92.56
2023-04-13T19:50:12.359Z,92.94
2023-04-13T19:53:04.587Z,93.54
2023-04-13T19:55:33.510Z,93.06
2023-04-13T19:58:01.680Z,93.05
2023-04-13T20:00:29.595Z,93.52
2023-04-13T20:03:03.522Z,93.77
2023-04-13T20:05:30.833Z,94.12
2023-04-13T20:08:07.234Z,94.46
2023-04-13T20:11:05.364Z,95.38
2023-04-13T20:13:35.530Z,95.72
2023-04-13T20:16:08.247Z,95.48
2023-04-13T20:18:36.780Z,95.01
2023-04-13T20:21:04.183Z,95.20
2023-04-13T20:23:31.644Z,95.27
2023-04-13T20:25:58.698Z,94.63
2023-04-13T20:28:25.751Z,95.70
2023-04-13T20:30:52.691Z,95.55
2023-04-13T20:33:19.957Z,96.86
2023-04-13T20:35:46.722Z,96.95
2023-04-13T20:38:14.698Z,96.84
2023-04-13T20:40:41.915Z,97.43
2023-04-13T20:43:09.766Z,97.11
2023-04-13T20:45:37.181Z,96.25
2023-04-13T20:50:34.982Z,96.97
2023-04-13T20:53:01.965Z,97.50
2023-04-13T20:55:28.795Z,97.50
2023-04-13T20:57:56.097Z,97.33
2023-04-13T21:00:23.617Z,98.09
2023-04-13T21:02:53.271Z,98.48
2023-04-13T21:05:22.714Z,98.78
2023-04-13T21:07:50.380Z,99.29
2023-04-13T21:10:17.932Z,99.50
2023-04-13T21:12:45.116Z,99.13
2023-04-13T21:15:12.268Z,99.34
2023-04-13T21:17:39.580Z,100.00
2023-04-13T21:20:09.159Z,99.27
2023-04-13T21:22:37.145Z,98.23
2023-04-13T21:25:05.495Z,98.47
2023-04-13T21:27:32.673Z,98.59
2023-04-13T21:30:00.263Z,98.81
2023-04-13T21:32:27.513Z,98.81
2023-04-13T21:34:55.470Z,100.00
2023-04-13T21:37:22.468Z,99.91
2023-04-13T21:39:49.542Z,100.00
2023-04-13T21:42:17.135Z,100.00
2023-04-13T21:44:44.113Z,100.00
2023-04-13T21:47:11.102Z,100.00
2023-04-13T21:49:38.029Z,100.00
2023-04-13T21:52:05.176Z,99.72
2023-04-13T21:54:32.268Z,99.92
2023-04-13T21:56:59.048Z,100.00
2023-04-13T21:59:27.516Z,100.00
2023-04-13T22:01:54.957Z,100.00
2023-04-13T22:04:23.170Z,100.00
2023-04-13T22:06:50.165Z,100.00
2023-04-13T22:09:17.215Z,100.00
2023-04-13T22:11:44.228Z,100.00
2023-04-13T22:14:11.123Z,100.00
2023-04-13T22:16:38.112Z,100.00
2023-04-13T22:19:05.063Z,100.00
2023-04-13T22:21:34.896Z,100.00
2023-04-13T22:24:01.823Z,100.00
2023-04-13T22:26:29.170Z,100.00
2023-04-13T22:28:56.314Z,100.00
2023-04-13T22:31:23.311Z,100.00
2023-04-13T22:33:50.490Z,100.00
2023-04-13T22:36:19.996Z,100.00
2023-04-13T22:38:48.474Z,100.00
2023-04-13T22:41:16.174Z,100.00
2023-04-13T22:43:43.078Z,100.00
2023-04-13T22:46:10.167Z,100.00
2023-04-13T22:48:36.978Z,100.00
2023-04-13T22:51:04.152Z,100.00
2023-04-13T22:53:31.225Z,100.00
2023-04-13T22:55:59.261Z,100.00
2023-04-13T22:58:26.701Z,100.00
2023-04-13T23:00:53.665Z,100.00
2023-04-13T23:03:21.610Z,100.00
2023-04-13T23:05:48.812Z,100.00
2023-04-13T23:08:15.878Z,100.00
2023-04-13T23:10:42.631Z,100.00
2023-04-13T23:13:09.399Z,100.00
2023-04-13T23:15:36.562Z,100.00
2023-04-13T23:18:03.768Z,100.00
2023-04-13T23:20:31.446Z,100.00
2023-04-13T23:22:58.215Z,100.00
2023-04-13T23:25:25.029Z,100.00
2023-04-13T23:27:52.372Z,100.00
2023-04-13T23:30:21.577Z,100.00
2023-04-13T23:32:48.535Z,100.00
2023-04-13T23:35:15.640Z,100.00
2023-04-13T23:37:43.555Z,100.00
2023-04-13T23:40:10.976Z,100.00
2023-04-13T23:42:38.056Z,100.00
2023-04-13T23:45:05.855Z,100.00
2023-04-13T23:47:32.805Z,100.00
2023-04-13T23:49:59.745Z,100.00
2023-04-13T23:52:26.632Z,100.00
2023-04-13T23:54:53.506Z,100.00
2023-04-13T23:57:20.952Z,100.00
2023-04-13T23:59:48.357Z,100.00
